WXM80 ListenWXM80 Stop

You find our weather info also at:

UK Metoffice

WeatherCloud

Weather Underground

Northeastern Weather Network

AWEKAS

Citizen Weather Observer Program (CWOP)

HAMweather, WeatherForYou, PWS Weather


Weather Underground History page Text

Daily Summary for February 24, 2018 Units:  English    Metric   Both
« Previous Day
Next Day »
Daily Weekly Monthly Yearly Custom
  High: Low: Average:
Temperature: 56.2 °F 39.4 °F 46.2 °F
Dew Point: 48.0 °F 38.9 °F 43.5 °F
Humidity: 98 % 71 % 91 %
Wind Speed: 6.9 mph 0.0 mph 1.5 mph
Wind Gust: 13.0 mph - -
Wind:- - SW
Pressure: 29.99 in 29.85 in -
Precipitation: 0.00 in    
Historical Graphs
 
 
Tabular Data for February 24, 2018
Time Temperature Dew Point Pressure Wind Wind Speed Wind Gust Humidity Rainfall Rate (Hourly)
00:04 39.4 °F 38.9 °F 29.91 in Calm     98 % 0.00 in
00:09 39.5 °F 39.0 °F 29.91 in Calm     98 % 0.00 in
00:14 39.5 °F 39.0 °F 29.91 in Calm     98 % 0.00 in
00:19 39.7 °F 39.2 °F 29.91 in Calm     98 % 0.00 in
00:24 39.8 °F 39.3 °F 29.91 in WSW 0.4 mph 2.0 mph 98 % 0.00 in
00:29 40.0 °F 39.5 °F 29.91 in WSW 0.9 mph 1.2 mph 98 % 0.00 in
00:39 40.3 °F 39.8 °F 29.91 in West 0.7 mph 3.5 mph 98 % 0.00 in
00:44 40.4 °F 39.9 °F 29.91 in Calm     98 % 0.00 in
00:50 40.4 °F 39.9 °F 29.90 in West 0.7 mph 3.5 mph 98 % 0.00 in
00:55 40.6 °F 40.1 °F 29.91 in WSW 1.8 mph 5.0 mph 98 % 0.00 in
01:00 40.7 °F 40.2 °F 29.90 in WSW 0.9 mph 4.0 mph 98 % 0.00 in
01:05 40.9 °F 40.4 °F 29.90 in West 2.9 mph 6.9 mph 98 % 0.00 in
01:10 41.0 °F 40.5 °F 29.89 in West 1.1 mph 3.5 mph 98 % 0.00 in
01:15 41.1 °F 40.6 °F 29.90 in West 3.3 mph 5.8 mph 98 % 0.00 in
01:20 41.3 °F 40.8 °F 29.89 in South 0.8 mph 2.3 mph 98 % 0.00 in
01:25 41.4 °F 40.9 °F 29.89 in SW 2.0 mph 3.5 mph 98 % 0.00 in
01:30 41.5 °F 41.0 °F 29.89 in West 2.6 mph 3.5 mph 98 % 0.00 in
01:35 41.6 °F 41.1 °F 29.89 in West 1.8 mph 5.8 mph 98 % 0.00 in
01:40 41.8 °F 41.3 °F 29.90 in West 1.6 mph 3.5 mph 98 % 0.00 in
01:45 41.9 °F 41.4 °F 29.90 in SW 0.3 mph 2.3 mph 98 % 0.00 in
01:50 42.0 °F 41.5 °F 29.89 in SW 1.3 mph 3.5 mph 98 % 0.00 in
01:52 42.0 °F 41.5 °F 29.89 in WSW 3.0 mph 4.6 mph 98 % 0.00 in
01:57 42.1 °F 41.6 °F 29.89 in West 3.2 mph 6.9 mph 98 % 0.00 in
02:02 42.2 °F 41.7 °F 29.89 in West 2.2 mph 5.8 mph 98 % 0.00 in
02:07 42.3 °F 41.8 °F 29.88 in West 1.0 mph 3.5 mph 98 % 0.00 in
02:12 42.3 °F 41.8 °F 29.88 in West 0.9 mph 2.0 mph 98 % 0.00 in
02:17 42.4 °F 41.9 °F 29.88 in WSW 5.5 mph 10.0 mph 98 % 0.00 in
02:22 42.4 °F 41.9 °F 29.89 in WNW 2.8 mph 5.8 mph 98 % 0.00 in
02:27 42.5 °F 42.0 °F 29.89 in West 4.5 mph 9.2 mph 98 % 0.00 in
02:32 42.5 °F 42.0 °F 29.89 in West 2.1 mph 5.8 mph 98 % 0.00 in
02:37 42.4 °F 41.9 °F 29.89 in SW 2.7 mph 5.8 mph 98 % 0.00 in
02:42 42.4 °F 41.9 °F 29.88 in SW 2.1 mph 4.0 mph 98 % 0.00 in
02:47 42.3 °F 41.8 °F 29.88 in WSW 2.0 mph 6.9 mph 98 % 0.00 in
02:52 42.3 °F 41.8 °F 29.88 in SW 4.0 mph 9.2 mph 98 % 0.00 in
02:58 42.3 °F 41.8 °F 29.88 in WSW 3.3 mph 11.5 mph 98 % 0.00 in
03:03 42.3 °F 41.8 °F 29.88 in SW 2.6 mph 8.1 mph 98 % 0.00 in
03:08 42.3 °F 41.8 °F 29.88 in West 4.8 mph 9.2 mph 98 % 0.00 in
03:13 42.2 °F 41.7 °F 29.87 in SW 3.1 mph 7.0 mph 98 % 0.00 in
03:18 42.3 °F 41.8 °F 29.87 in WSW 2.2 mph 5.0 mph 98 % 0.00 in
03:23 42.2 °F 41.7 °F 29.87 in WSW 4.4 mph 6.9 mph 98 % 0.00 in
03:28 42.2 °F 41.7 °F 29.87 in WSW 1.2 mph 3.5 mph 98 % 0.00 in
03:33 42.2 °F 41.7 °F 29.87 in WSW 1.8 mph 3.5 mph 98 % 0.00 in
03:38 42.2 °F 41.7 °F 29.87 in SW 3.4 mph 6.0 mph 98 % 0.00 in
03:43 42.3 °F 41.8 °F 29.87 in WSW 3.3 mph 8.1 mph 98 % 0.00 in
03:49 42.3 °F 41.8 °F 29.87 in SW 3.3 mph 10.4 mph 98 % 0.00 in
03:54 42.3 °F 41.8 °F 29.87 in WSW 4.7 mph 8.0 mph 98 % 0.00 in
03:59 42.3 °F 41.8 °F 29.86 in SSW 5.8 mph 8.1 mph 98 % 0.00 in
04:02 42.4 °F 41.9 °F 29.86 in SW 5.0 mph 6.9 mph 98 % 0.00 in
04:07 42.4 °F 41.6 °F 29.85 in SSW 3.9 mph 6.9 mph 97 % 0.00 in
04:12 42.4 °F 41.6 °F 29.86 in SW 3.9 mph 6.0 mph 97 % 0.00 in
04:17 42.4 °F 41.6 °F 29.86 in SW 2.1 mph 3.5 mph 97 % 0.00 in
04:22 42.4 °F 41.6 °F 29.86 in WNW 2.8 mph 4.0 mph 97 % 0.00 in
04:27 42.5 °F 41.7 °F 29.87 in WSW 0.2 mph 2.3 mph 97 % 0.00 in
04:32 42.5 °F 41.7 °F 29.86 in West 4.2 mph 6.9 mph 97 % 0.00 in
04:37 42.5 °F 41.7 °F 29.86 in WSW 2.9 mph 8.1 mph 97 % 0.00 in
04:42 42.6 °F 42.1 °F 29.86 in West 0.4 mph 3.5 mph 98 % 0.00 in
04:47 42.6 °F 41.8 °F 29.87 in WSW 3.4 mph 7.0 mph 97 % 0.00 in
04:52 42.6 °F 41.8 °F 29.87 in West 3.7 mph 6.9 mph 97 % 0.00 in
04:57 42.6 °F 41.8 °F 29.87 in WSW 3.9 mph 5.8 mph 97 % 0.00 in
05:02 42.6 °F 41.8 °F 29.87 in WSW 6.8 mph 10.4 mph 97 % 0.00 in
05:07 42.6 °F 41.8 °F 29.87 in SW 2.2 mph 5.0 mph 97 % 0.00 in
05:12 42.7 °F 41.9 °F 29.88 in West 6.6 mph 11.5 mph 97 % 0.00 in
05:17 42.7 °F 41.9 °F 29.88 in WSW 2.8 mph 6.0 mph 97 % 0.00 in
05:22 42.8 °F 42.0 °F 29.88 in WSW 6.9 mph 13.0 mph 97 % 0.00 in
05:27 42.8 °F 42.0 °F 29.88 in SW 1.6 mph 6.9 mph 97 % 0.00 in
05:32 42.7 °F 41.9 °F 29.88 in SW 4.9 mph 10.4 mph 97 % 0.00 in
05:37 42.7 °F 41.9 °F 29.89 in SSW 4.4 mph 5.8 mph 97 % 0.00 in
05:43 42.7 °F 41.9 °F 29.88 in West 4.2 mph 8.1 mph 97 % 0.00 in
05:48 42.8 °F 42.0 °F 29.88 in SW 2.8 mph 6.9 mph 97 % 0.00 in
05:53 42.7 °F 41.9 °F 29.88 in WSW 4.7 mph 8.1 mph 97 % 0.00 in
05:58 42.8 °F 42.0 °F 29.88 in West 3.0 mph 6.9 mph 97 % 0.00 in
06:03 42.8 °F 42.0 °F 29.88 in WSW 5.3 mph 9.2 mph 97 % 0.00 in
06:08 42.8 °F 42.0 °F 29.88 in Calm     97 % 0.00 in
06:13 42.9 °F 42.1 °F 29.89 in Calm     97 % 0.00 in
06:18 42.9 °F 42.1 °F 29.89 in WSW 4.7 mph 6.0 mph 97 % 0.00 in
06:23 42.9 °F 42.1 °F 29.89 in WSW 4.9 mph 9.2 mph 97 % 0.00 in
06:28 42.9 °F 42.1 °F 29.89 in WSW 4.7 mph 6.9 mph 97 % 0.00 in
06:33 43.0 °F 42.2 °F 29.89 in SW 5.0 mph 8.1 mph 97 % 0.00 in
06:38 43.1 °F 42.3 °F 29.89 in West 3.6 mph 8.1 mph 97 % 0.00 in
06:43 43.2 °F 42.4 °F 29.89 in West 4.6 mph 6.9 mph 97 % 0.00 in
06:48 43.3 °F 42.5 °F 29.90 in WSW 4.7 mph 5.8 mph 97 % 0.00 in
06:53 43.3 °F 42.5 °F 29.90 in WSW 4.1 mph 5.8 mph 97 % 0.00 in
06:58 43.4 °F 42.6 °F 29.90 in WSW 4.2 mph 11.5 mph 97 % 0.00 in
07:03 43.6 °F 42.8 °F 29.90 in WSW 5.4 mph 5.8 mph 97 % 0.00 in
07:08 43.8 °F 43.0 °F 29.91 in NW 2.1 mph 4.6 mph 97 % 0.00 in
07:13 44.0 °F 43.2 °F 29.91 in West 3.8 mph 3.8 mph 97 % 0.00 in
07:19 44.2 °F 43.4 °F 29.91 in WSW 3.5 mph 6.9 mph 97 % 0.00 in
07:24 44.3 °F 43.5 °F 29.91 in SW 4.0 mph 5.8 mph 97 % 0.00 in
07:29 44.3 °F 43.5 °F 29.91 in WSW 1.5 mph 9.2 mph 97 % 0.00 in
07:34 44.3 °F 43.2 °F 29.91 in WSW 3.1 mph 4.6 mph 96 % 0.00 in
07:39 44.3 °F 43.2 °F 29.91 in WSW 2.9 mph 8.1 mph 96 % 0.00 in
07:44 44.4 °F 43.3 °F 29.91 in SSW 2.6 mph 3.5 mph 96 % 0.00 in
07:49 44.5 °F 43.4 °F 29.91 in West 1.2 mph 3.5 mph 96 % 0.00 in
07:54 44.6 °F 43.5 °F 29.91 in WSW 5.3 mph 8.1 mph 96 % 0.00 in
07:59 44.8 °F 43.7 °F 29.91 in West 1.2 mph 3.5 mph 96 % 0.00 in
08:04 45.0 °F 43.9 °F 29.91 in WSW 1.8 mph 3.5 mph 96 % 0.00 in
08:09 45.3 °F 44.2 °F 29.91 in SSW 1.5 mph 4.6 mph 96 % 0.00 in
08:14 45.7 °F 44.9 °F 29.91 in WSW 4.1 mph 7.0 mph 97 % 0.00 in
08:19 46.1 °F 45.0 °F 29.91 in NW 2.4 mph 3.5 mph 96 % 0.00 in
08:24 46.4 °F 45.3 °F 29.90 in WNW 2.7 mph 6.0 mph 96 % 0.00 in
08:29 46.6 °F 45.5 °F 29.90 in WSW 3.1 mph 5.8 mph 96 % 0.00 in
08:34 46.9 °F 45.8 °F 29.90 in Calm   1.0 mph 96 % 0.00 in
08:39 47.1 °F 45.7 °F 29.90 in WNW 2.7 mph 5.0 mph 95 % 0.00 in
08:44 47.3 °F 45.9 °F 29.90 in Calm   4.6 mph 95 % 0.00 in
08:49 47.6 °F 46.0 °F 29.91 in WNW 1.2 mph 3.5 mph 94 % 0.00 in
08:54 47.8 °F 46.2 °F 29.90 in NW 2.4 mph 4.6 mph 94 % 0.00 in
08:59 48.0 °F 46.1 °F 29.91 in WSW 3.7 mph 6.0 mph 93 % 0.00 in
09:04 48.2 °F 46.0 °F 29.90 in WSW 2.9 mph 4.6 mph 92 % 0.00 in
09:09 48.5 °F 46.3 °F 29.90 in WNW 1.7 mph 3.5 mph 92 % 0.00 in
09:14 48.7 °F 46.2 °F 29.91 in West 0.9 mph 4.0 mph 91 % 0.00 in
09:19 49.2 °F 46.7 °F 29.90 in West 2.0 mph 3.5 mph 91 % 0.00 in
09:24 49.7 °F 46.9 °F 29.90 in West 0.2 mph 1.2 mph 90 % 0.00 in
09:29 50.2 °F 47.4 °F 29.90 in WNW 0.4 mph 3.5 mph 90 % 0.00 in
09:34 50.8 °F 47.4 °F 29.89 in Calm   3.5 mph 88 % 0.00 in
09:39 51.2 °F 47.5 °F 29.90 in West 2.3 mph 3.5 mph 87 % 0.00 in
09:44 51.4 °F 47.0 °F 29.90 in WNW 0.1 mph 2.3 mph 85 % 0.00 in
09:49 51.5 °F 46.8 °F 29.90 in NW 0.4 mph 3.5 mph 84 % 0.00 in
09:54 51.6 °F 47.2 °F 29.90 in NNW 1.2 mph 2.3 mph 85 % 0.00 in
09:59 51.8 °F 47.4 °F 29.90 in NNW 0.3 mph 1.2 mph 85 % 0.00 in
10:05 52.3 °F 47.6 °F 29.90 in Calm   1.2 mph 84 % 0.00 in
10:10 52.6 °F 47.9 °F 29.90 in North 0.3 mph 1.2 mph 84 % 0.00 in
10:15 52.6 °F 47.3 °F 29.89 in North 1.0 mph 2.3 mph 82 % 0.00 in
10:20 52.7 °F 47.0 °F 29.90 in Calm   3.5 mph 81 % 0.00 in
10:25 52.8 °F 47.1 °F 29.90 in Calm     81 % 0.00 in
10:30 52.8 °F 47.5 °F 29.90 in North 1.2 mph 3.5 mph 82 % 0.00 in
10:35 52.8 °F 47.1 °F 29.90 in North 0.6 mph 2.3 mph 81 % 0.00 in
10:40 52.7 °F 47.0 °F 29.90 in North 0.1 mph 1.0 mph 81 % 0.00 in
10:45 52.7 °F 47.4 °F 29.90 in Calm     82 % 0.00 in
10:50 52.7 °F 46.7 °F 29.90 in SW 1.8 mph 3.0 mph 80 % 0.00 in
10:55 52.7 °F 47.0 °F 29.90 in SW 0.5 mph 1.2 mph 81 % 0.00 in
11:00 52.6 °F 46.6 °F 29.90 in Calm     80 % 0.00 in
11:05 52.5 °F 46.2 °F 29.90 in SW 0.4 mph 2.0 mph 79 % 0.00 in
11:10 52.3 °F 46.3 °F 29.90 in SW 0.1 mph 2.0 mph 80 % 0.00 in
11:15 52.3 °F 46.6 °F 29.90 in SW 0.5 mph 2.3 mph 81 % 0.00 in
11:20 52.4 °F 46.7 °F 29.89 in SW 0.7 mph 2.3 mph 81 % 0.00 in
11:25 52.5 °F 46.8 °F 29.89 in Calm     81 % 0.00 in
11:36 52.7 °F 46.7 °F 29.89 in Calm   2.0 mph 80 % 0.00 in
11:40 52.8 °F 46.5 °F 29.89 in Calm     79 % 0.00 in
11:46 52.9 °F 46.9 °F 29.88 in Calm   2.0 mph 80 % 0.00 in
11:51 53.1 °F 46.8 °F 29.88 in Calm     79 % 0.00 in
11:55 53.3 °F 47.3 °F 29.88 in WNW 1.1 mph 3.0 mph 80 % 0.00 in
12:01 53.5 °F 47.1 °F 29.89 in SSW 2.1 mph 4.6 mph 79 % 0.00 in
12:06 53.5 °F 46.5 °F 29.89 in SSW 1.9 mph 4.0 mph 77 % 0.00 in
12:11 53.5 °F 46.5 °F 29.89 in WSW 3.3 mph 5.8 mph 77 % 0.00 in
12:16 53.5 °F 46.5 °F 29.91 in SSW 3.0 mph 6.9 mph 77 % 0.00 in
12:21 53.5 °F 46.5 °F 29.91 in SW 2.2 mph 6.9 mph 77 % 0.00 in
12:26 53.4 °F 46.4 °F 29.91 in SSW 1.4 mph 2.3 mph 77 % 0.00 in
12:31 53.4 °F 46.4 °F 29.91 in Calm     77 % 0.00 in
12:36 53.6 °F 46.6 °F 29.91 in SW 1.0 mph 3.5 mph 77 % 0.00 in
12:41 54.0 °F 47.3 °F 29.91 in Calm   2.3 mph 78 % 0.00 in
12:46 54.4 °F 48.0 °F 29.90 in West 3.3 mph 3.5 mph 79 % 0.00 in
12:51 54.6 °F 47.5 °F 29.89 in WSW 2.4 mph 3.5 mph 77 % 0.00 in
12:56 55.0 °F 47.6 °F 29.89 in West 1.8 mph 4.6 mph 76 % 0.00 in
13:01 55.2 °F 47.4 °F 29.88 in WSW 2.3 mph 4.6 mph 75 % 0.00 in
13:06 55.4 °F 47.2 °F 29.88 in WSW 1.8 mph 4.6 mph 74 % 0.00 in
13:11 55.5 °F 47.3 °F 29.89 in West 1.9 mph 3.5 mph 74 % 0.00 in
13:16 55.5 °F 47.3 °F 29.88 in Calm     74 % 0.00 in
13:22 55.6 °F 47.8 °F 29.87 in Calm   1.2 mph 75 % 0.00 in
13:27 55.8 °F 47.3 °F 29.87 in West 0.1 mph 2.3 mph 73 % 0.00 in
13:32 55.9 °F 47.7 °F 29.87 in NW 0.6 mph 4.0 mph 74 % 0.00 in
13:37 56.2 °F 47.7 °F 29.87 in NW 0.6 mph 3.0 mph 73 % 0.00 in
13:42 56.2 °F 47.3 °F 29.88 in West 1.2 mph 3.5 mph 72 % 0.00 in
13:47 56.2 °F 47.3 °F 29.87 in Calm     72 % 0.00 in
13:52 56.0 °F 46.7 °F 29.87 in WNW 0.7 mph 2.3 mph 71 % 0.00 in
13:57 55.9 °F 46.6 °F 29.87 in Calm     71 % 0.00 in
14:02 55.8 °F 46.9 °F 29.87 in Calm     72 % 0.00 in
14:07 55.5 °F 46.6 °F 29.86 in Calm     72 % 0.00 in
14:12 55.3 °F 47.5 °F 29.87 in WNW 0.1 mph 1.2 mph 75 % 0.00 in
14:17 55.1 °F 47.0 °F 29.87 in Calm     74 % 0.00 in
14:22 54.9 °F 46.4 °F 29.88 in Calm   1.2 mph 73 % 0.00 in
14:27 54.7 °F 46.2 °F 29.89 in WNW 0.1 mph 2.3 mph 73 % 0.00 in
14:32 54.5 °F 46.4 °F 29.91 in WNW 0.2 mph 2.0 mph 74 % 0.00 in
14:37 54.3 °F 46.2 °F 29.91 in Calm   1.2 mph 74 % 0.00 in
14:42 54.0 °F 46.3 °F 29.91 in WNW 0.1 mph 3.5 mph 75 % 0.00 in
14:47 53.8 °F 46.4 °F 29.90 in Calm     76 % 0.00 in
14:52 53.6 °F 46.6 °F 29.90 in Calm     77 % 0.00 in
14:58 53.4 °F 47.0 °F 29.90 in Calm     79 % 0.00 in
15:03 53.1 °F 47.4 °F 29.89 in Calm     81 % 0.00 in
15:08 52.9 °F 47.6 °F 29.89 in Calm     82 % 0.00 in
15:13 52.7 °F 47.4 °F 29.89 in Calm   1.2 mph 82 % 0.00 in
15:18 52.3 °F 47.0 °F 29.88 in Calm     82 % 0.00 in
15:23 52.0 °F 47.0 °F 29.88 in Calm     83 % 0.00 in
15:28 51.5 °F 46.5 °F 29.88 in Calm     83 % 0.00 in
15:33 51.0 °F 46.0 °F 29.89 in Calm     83 % 0.00 in
15:38 50.7 °F 46.0 °F 29.89 in Calm     84 % 0.00 in
15:43 50.3 °F 45.6 °F 29.89 in Calm     84 % 0.00 in
15:48 49.8 °F 44.8 °F 29.90 in Calm     83 % 0.00 in
15:53 49.4 °F 44.8 °F 29.92 in Calm     84 % 0.00 in
15:58 49.2 °F 44.9 °F 29.92 in Calm     85 % 0.00 in
16:03 49.0 °F 45.0 °F 29.92 in WNW 2.0 mph 3.5 mph 86 % 0.00 in
16:07 48.8 °F 44.8 °F 29.93 in WNW 0.5 mph 2.3 mph 86 % 0.00 in
16:12 48.5 °F 44.8 °F 29.93 in WNW 1.9 mph 3.5 mph 87 % 0.00 in
16:17 48.2 °F 44.5 °F 29.95 in WNW 0.1 mph 1.2 mph 87 % 0.00 in
16:22 47.9 °F 44.2 °F 29.93 in NW 1.5 mph 3.5 mph 87 % 0.00 in
16:27 47.5 °F 44.1 °F 29.93 in North 1.0 mph 2.3 mph 88 % 0.00 in
16:31 47.2 °F 43.8 °F 29.93 in North 1.2 mph 2.3 mph 88 % 0.00 in
16:36 46.9 °F 43.8 °F 29.92 in NNE 2.0 mph 3.0 mph 89 % 0.00 in
16:41 46.6 °F 43.5 °F 29.92 in NE 2.8 mph 4.6 mph 89 % 0.00 in
16:42 46.6 °F 43.5 °F 29.91 in NE 2.4 mph 4.6 mph 89 % 0.00 in
16:47 46.4 °F 43.6 °F 29.91 in NE 0.4 mph 1.2 mph 90 % 0.00 in
16:52 46.3 °F 43.5 °F 29.92 in NNE 0.9 mph 2.3 mph 90 % 0.00 in
16:57 46.2 °F 43.4 °F 29.92 in NE 0.5 mph 3.0 mph 90 % 0.00 in
17:02 46.0 °F 43.2 °F 29.93 in NNE 1.8 mph 3.5 mph 90 % 0.00 in
17:03 46.0 °F 43.2 °F 29.93 in NNE 1.4 mph 3.5 mph 90 % 0.00 in
17:08 45.9 °F 43.1 °F 29.93 in NNE 0.1 mph 1.2 mph 90 % 0.00 in
17:13 45.8 °F 43.3 °F 29.93 in Calm     91 % 0.00 in
17:18 45.6 °F 43.1 °F 29.93 in NNE 1.3 mph 3.0 mph 91 % 0.00 in
17:23 45.6 °F 43.1 °F 29.95 in Calm   1.2 mph 91 % 0.00 in
17:24 45.6 °F 43.1 °F 29.95 in North 0.2 mph 1.2 mph 91 % 0.00 in
17:29 45.5 °F 43.3 °F 29.95 in Calm     92 % 0.00 in
17:34 45.5 °F 43.3 °F 29.94 in Calm     92 % 0.00 in
17:39 45.5 °F 43.3 °F 29.93 in Calm     92 % 0.00 in
17:45 45.4 °F 43.2 °F 29.94 in Calm     92 % 0.00 in
17:50 45.4 °F 43.2 °F 29.93 in Calm     92 % 0.00 in
17:55 45.3 °F 43.1 °F 29.92 in Calm     92 % 0.00 in
18:00 45.2 °F 43.0 °F 29.92 in Calm     92 % 0.00 in
18:07 45.1 °F 42.9 °F 29.93 in Calm     92 % 0.00 in
18:12 45.1 °F 42.9 °F 29.92 in North 0.1 mph 3.5 mph 92 % 0.00 in
18:17 45.0 °F 42.8 °F 29.92 in Calm     92 % 0.00 in
18:22 45.0 °F 42.8 °F 29.92 in Calm     92 % 0.00 in
18:27 44.9 °F 43.0 °F 29.93 in Calm   2.3 mph 93 % 0.00 in
18:32 44.9 °F 43.0 °F 29.93 in Calm     93 % 0.00 in
18:37 44.9 °F 43.0 °F 29.92 in Calm     93 % 0.00 in
18:43 44.9 °F 43.0 °F 29.92 in NNE 0.3 mph 2.0 mph 93 % 0.00 in
18:48 44.9 °F 43.0 °F 29.91 in NNE 0.3 mph 2.3 mph 93 % 0.00 in
18:52 45.0 °F 43.1 °F 29.91 in Calm   2.3 mph 93 % 0.00 in
18:57 45.0 °F 43.1 °F 29.92 in NNE 0.3 mph 1.2 mph 93 % 0.00 in
19:02 45.0 °F 43.4 °F 29.92 in Calm   1.0 mph 94 % 0.00 in
19:07 45.0 °F 43.4 °F 29.92 in NNE 0.1 mph 2.0 mph 94 % 0.00 in
19:12 45.1 °F 43.5 °F 29.93 in Calm     94 % 0.00 in
19:17 45.1 °F 43.5 °F 29.93 in Calm     94 % 0.00 in
19:22 45.0 °F 43.4 °F 29.93 in Calm     94 % 0.00 in
19:27 45.0 °F 43.4 °F 29.93 in Calm     94 % 0.00 in
19:32 44.9 °F 43.3 °F 29.93 in Calm     94 % 0.00 in
19:37 44.9 °F 43.3 °F 29.93 in Calm     94 % 0.00 in
19:42 44.8 °F 43.2 °F 29.94 in Calm     94 % 0.00 in
19:47 44.7 °F 43.1 °F 29.94 in Calm     94 % 0.00 in
19:52 44.7 °F 43.1 °F 29.94 in Calm     94 % 0.00 in
19:57 44.7 °F 43.1 °F 29.94 in Calm     94 % 0.00 in
20:02 44.6 °F 43.0 °F 29.95 in NE 2.0 mph 3.5 mph 94 % 0.00 in
20:08 44.6 °F 43.0 °F 29.95 in NE 0.1 mph 1.2 mph 94 % 0.00 in
20:13 44.5 °F 42.9 °F 29.95 in Calm   2.3 mph 94 % 0.00 in
20:18 44.4 °F 42.8 °F 29.95 in Calm   2.3 mph 94 % 0.00 in
20:23 44.3 °F 42.7 °F 29.97 in NE 1.2 mph 2.3 mph 94 % 0.00 in
20:28 44.2 °F 42.6 °F 29.97 in NE 1.6 mph 3.5 mph 94 % 0.00 in
20:33 44.0 °F 42.4 °F 29.97 in NNE 1.6 mph 3.5 mph 94 % 0.00 in
20:38 43.8 °F 42.2 °F 29.97 in NNW 2.7 mph 4.6 mph 94 % 0.00 in
20:43 43.6 °F 42.0 °F 29.98 in NNE 2.8 mph 5.8 mph 94 % 0.00 in
20:48 43.4 °F 41.8 °F 29.97 in North 3.3 mph 5.0 mph 94 % 0.00 in
20:53 43.2 °F 41.3 °F 29.98 in NNW 2.5 mph 3.5 mph 93 % 0.00 in
20:58 43.0 °F 41.1 °F 29.98 in North 3.9 mph 6.0 mph 93 % 0.00 in
21:03 42.9 °F 41.3 °F 29.98 in North 3.4 mph 6.9 mph 94 % 0.00 in
21:08 42.7 °F 41.1 °F 29.99 in NNW 1.9 mph 3.5 mph 94 % 0.00 in
21:13 42.6 °F 41.0 °F 29.98 in NNW 0.7 mph 2.3 mph 94 % 0.00 in
21:18 42.5 °F 40.9 °F 29.98 in NNE 3.5 mph 8.1 mph 94 % 0.00 in
21:23 42.4 °F 40.8 °F 29.97 in NNE 3.0 mph 3.5 mph 94 % 0.00 in
21:28 42.4 °F 40.8 °F 29.97 in NNE 2.6 mph 3.5 mph 94 % 0.00 in
21:34 42.3 °F 40.7 °F 29.97 in North 2.4 mph 4.0 mph 94 % 0.00 in
21:39 42.2 °F 40.6 °F 29.97 in North 1.8 mph 3.5 mph 94 % 0.00 in
21:44 42.2 °F 40.6 °F 29.97 in North 0.8 mph 2.3 mph 94 % 0.00 in
21:49 42.1 °F 40.5 °F 29.97 in Calm     94 % 0.00 in
21:54 42.1 °F 40.5 °F 29.97 in Calm   1.2 mph 94 % 0.00 in
21:59 42.0 °F 40.4 °F 29.97 in Calm     94 % 0.00 in
22:04 41.9 °F 40.3 °F 29.97 in Calm   1.2 mph 94 % 0.00 in
22:09 41.8 °F 40.2 °F 29.97 in Calm     94 % 0.00 in
22:14 41.8 °F 40.2 °F 29.96 in NNE 0.9 mph 3.5 mph 94 % 0.00 in
22:19 41.7 °F 40.1 °F 29.97 in Calm     94 % 0.00 in
22:24 41.8 °F 40.5 °F 29.97 in Calm     95 % 0.00 in
22:29 41.7 °F 40.4 °F 29.97 in Calm     95 % 0.00 in
22:34 41.8 °F 40.5 °F 29.97 in Calm     95 % 0.00 in
22:39 41.8 °F 40.5 °F 29.96 in NNE 0.5 mph 2.3 mph 95 % 0.00 in
22:44 41.8 °F 40.5 °F 29.96 in NNE 1.0 mph 3.5 mph 95 % 0.00 in
22:49 42.0 °F 40.7 °F 29.97 in Calm     95 % 0.00 in
22:54 41.9 °F 40.6 °F 29.96 in NE 0.2 mph 3.0 mph 95 % 0.00 in
22:59 42.0 °F 40.7 °F 29.97 in Calm     95 % 0.00 in
23:04 42.0 °F 40.7 °F 29.97 in Calm     95 % 0.00 in
23:09 42.0 °F 40.7 °F 29.97 in NE 0.4 mph   95 % 0.00 in
23:15 41.9 °F 40.6 °F 29.97 in Calm   1.2 mph 95 % 0.00 in
23:20 41.9 °F 40.6 °F 29.97 in Calm     95 % 0.00 in
23:25 41.9 °F 40.6 °F 29.96 in NE 0.1 mph 1.2 mph 95 % 0.00 in
23:30 41.8 °F 40.5 °F 29.97 in NE 1.9 mph 3.5 mph 95 % 0.00 in
23:35 41.8 °F 40.5 °F 29.96 in ENE 2.9 mph 4.6 mph 95 % 0.00 in
23:40 41.7 °F 40.4 °F 29.96 in ENE 2.6 mph 3.5 mph 95 % 0.00 in
23:45 41.7 °F 40.4 °F 29.96 in ENE 1.5 mph 3.5 mph 95 % 0.00 in
23:50 41.6 °F 40.3 °F 29.96 in ENE 1.2 mph 3.5 mph 95 % 0.00 in
23:55 41.5 °F 40.2 °F 29.97 in Calm   1.2 mph 95 % 0.00 in
Crab Meadow Weather
Compliments of Weather Underground - 3 mb

Script developed by  Jim McMurry - jmcmurry@mwt.net Adapted for the template by  Wim van der Kuil - Leuven-Template.eu

Lightning: The chances of being hit by lightning is 1:28,500.